Time;durP1;ratioP1;P1;durP2;ratioP2;P2;SDS_P1;SDS_P2;PMS_P1;PMS_P2;Temp;Humidity;BMP_temperature;BMP_pressure;BME280_temperature;BME280_humidity;BME280_pressure;Samples;Min_cycle;Max_cycle;Signal;HPM_P1;HPM_P2
2022/12/21 00:02:13;;;;;;;150.05;55.20;;;;;;;;;;5054426;28;20406;-80
2022/12/21 00:04:59;;;;;;;144.90;52.75;;;;;;;;;;5056450;28;20356;-81
2022/12/21 00:07:45;;;;;;;149.43;55.13;;;;;;;;;;5055105;28;20048;-80
2022/12/21 00:10:30;;;;;;;169.35;61.08;;;;;;;;;;5061090;28;20040;-80
2022/12/21 00:13:17;;;;;;;189.50;71.65;;;;;;;;;;5053699;28;20044;-79
2022/12/21 00:16:09;;;;;;;237.15;88.10;;;;;;;;;;5060733;28;20041;-81
2022/12/21 00:18:56;;;;;;;270.45;95.68;;;;;;;;;;5054237;28;20108;-78
2022/12/21 00:21:42;;;;;;;251.65;93.30;;;;;;;;;;5054461;28;20041;-80
2022/12/21 00:24:27;;;;;;;252.30;88.25;;;;;;;;;;5060403;28;20394;-79
2022/12/21 00:27:13;;;;;;;196.85;78.25;;;;;;;;;;5055511;28;20045;-81
2022/12/21 00:29:58;;;;;;;227.60;90.95;;;;;;;;;;5060331;28;20373;-81
2022/12/21 00:32:43;;;;;;;177.23;63.15;;;;;;;;;;5058397;28;20041;-80
2022/12/21 00:35:28;;;;;;;145.82;55.53;;;;;;;;;;5053420;28;20048;-81
2022/12/21 00:38:14;;;;;;;150.57;55.90;;;;;;;;;;5053586;28;20490;-80
2022/12/21 00:41:05;;;;;;;143.27;57.28;;;;;;;;;;5053074;28;20041;-80
2022/12/21 00:43:54;;;;;;;231.40;87.80;;;;;;;;;;5052387;28;20049;-81
2022/12/21 00:46:41;;;;;;;187.43;72.40;;;;;;;;;;5053871;28;20371;-83
2022/12/21 00:49:26;;;;;;;161.85;58.72;;;;;;;;;;5053966;28;20045;-81
2022/12/21 00:52:12;;;;;;;170.68;63.03;;;;;;;;;;5054877;28;20049;-83
2022/12/21 00:54:57;;;;;;;151.35;57.67;;;;;;;;;;5054176;28;20057;-83
2022/12/21 00:57:43;;;;;;;146.65;54.10;;;;;;;;;;5054538;28;20045;-84
2022/12/21 01:00:29;;;;;;;131.15;47.05;;;;;;;;;;5054961;28;20501;-83
2022/12/21 01:03:14;;;;;;;143.13;52.42;;;;;;;;;;5054469;28;20045;-84
2022/12/21 01:05:59;;;;;;;167.68;60.35;;;;;;;;;;5053925;28;20053;-83
2022/12/21 01:08:44;;;;;;;155.57;56.72;;;;;;;;;;5054954;28;20045;-84
2022/12/21 01:11:30;;;;;;;143.52;57.22;;;;;;;;;;5054550;28;20048;-80
2022/12/21 01:14:15;;;;;;;158.68;57.95;;;;;;;;;;5060605;28;20048;-79
2022/12/21 01:17:01;;;;;;;160.20;59.65;;;;;;;;;;5053520;28;20056;-84
2022/12/21 01:19:49;;;;;;;126.50;45.83;;;;;;;;;;5059226;28;20429;-83
2022/12/21 01:22:34;;;;;;;106.20;43.10;;;;;;;;;;5067349;28;20036;-80
2022/12/21 01:25:19;;;;;;;99.10;40.38;;;;;;;;;;5081279;28;20037;-81
2022/12/21 01:28:04;;;;;;;107.05;42.70;;;;;;;;;;5060934;28;20053;-80
2022/12/21 01:30:50;;;;;;;99.55;42.20;;;;;;;;;;5060037;28;20040;-83
2022/12/21 01:33:35;;;;;;;95.30;41.13;;;;;;;;;;5053210;28;20049;-84
2022/12/21 01:36:23;;;;;;;101.90;38.92;;;;;;;;;;5059709;28;20036;-83
2022/12/21 01:39:09;;;;;;;117.32;43.13;;;;;;;;;;5060202;28;20052;-84
2022/12/21 01:41:54;;;;;;;105.43;43.05;;;;;;;;;;5059686;28;20041;-80
2022/12/21 01:45:00;;;;;;;120.53;44.58;;;;;;;;;;5053814;28;20041;-80
2022/12/21 01:47:57;;;;;;;119.57;44.13;;;;;;;;;;5059719;28;20426;-84
2022/12/21 01:51:06;;;;;;;127.03;44.25;;;;;;;;;;5059761;28;20108;-84
2022/12/21 01:54:01;;;;;;;106.00;41.85;;;;;;;;;;5053716;28;20033;-80
2022/12/21 01:56:48;;;;;;;97.83;40.10;;;;;;;;;;5056435;28;20049;-84
2022/12/21 01:59:38;;;;;;;97.40;39.05;;;;;;;;;;5059465;28;20278;-81
2022/12/21 02:02:27;;;;;;;99.45;38.83;;;;;;;;;;5053900;28;20049;-85
2022/12/21 02:05:19;;;;;;;98.03;39.17;;;;;;;;;;5054037;28;20045;-84
2022/12/21 02:08:05;;;;;;;87.55;37.78;;;;;;;;;;5053910;28;20048;-81
2022/12/21 02:10:51;;;;;;;85.30;36.92;;;;;;;;;;5059450;28;20049;-81
2022/12/21 02:13:37;;;;;;;85.57;36.97;;;;;;;;;;5058912;28;20047;-81
2022/12/21 02:16:25;;;;;;;78.72;33.22;;;;;;;;;;5052666;28;20044;-81
2022/12/21 02:19:47;;;;;;;73.15;31.88;;;;;;;;;;5058822;28;20390;-81
2022/12/21 02:22:41;;;;;;;74.38;33.03;;;;;;;;;;5053611;28;20490;-85
2022/12/21 02:25:40;;;;;;;77.38;32.20;;;;;;;;;;5052988;28;20045;-81
2022/12/21 02:28:56;;;;;;;73.93;32.38;;;;;;;;;;5058967;28;20418;-81
2022/12/21 02:31:56;;;;;;;74.07;32.35;;;;;;;;;;5063253;28;20044;-85
2022/12/21 02:35:06;;;;;;;70.40;31.55;;;;;;;;;;5058682;28;20029;-85
2022/12/21 02:38:32;;;;;;;75.40;31.88;;;;;;;;;;5064723;28;20049;-85
2022/12/21 02:41:45;;;;;;;67.32;29.45;;;;;;;;;;5063152;28;20397;-84
2022/12/21 02:44:36;;;;;;;72.15;28.73;;;;;;;;;;5057081;28;20037;-85
2022/12/21 02:47:40;;;;;;;72.10;29.50;;;;;;;;;;5056239;28;20053;-81
2022/12/21 02:50:36;;;;;;;66.82;31.52;;;;;;;;;;5057251;28;20044;-84
2022/12/21 02:53:37;;;;;;;65.22;28.77;;;;;;;;;;5057414;28;20045;-85
2022/12/21 02:56:22;;;;;;;67.72;27.63;;;;;;;;;;5061087;28;20049;-81
2022/12/21 02:59:11;;;;;;;65.78;27.70;;;;;;;;;;5062967;28;20044;-81
2022/12/21 03:02:03;;;;;;;64.80;26.17;;;;;;;;;;5062694;28;20478;-84
2022/12/21 03:05:41;;;;;;;60.05;27.05;;;;;;;;;;5062467;28;20041;-85
2022/12/21 03:09:02;;;;;;;71.70;30.02;;;;;;;;;;5028210;28;20038;-88
2022/12/21 03:12:26;;;;;;;71.63;29.65;;;;;;;;;;5062542;28;20053;-86
2022/12/21 03:15:24;;;;;;;97.30;42.00;;;;;;;;;;5048895;28;20041;-86
2022/12/21 03:18:30;;;;;;;80.35;32.75;;;;;;;;;;5062474;28;20044;-87
2022/12/21 03:21:24;;;;;;;78.05;34.33;;;;;;;;;;5057348;28;20394;-83
2022/12/21 03:24:16;;;;;;;76.75;32.45;;;;;;;;;;5061487;28;20049;-87
2022/12/21 03:27:29;;;;;;;85.75;33.15;;;;;;;;;;5056676;28;20037;-83
2022/12/21 03:30:18;;;;;;;76.55;31.05;;;;;;;;;;5055866;28;20041;-87
2022/12/21 03:33:12;;;;;;;67.55;27.90;;;;;;;;;;5057094;28;20467;-82
2022/12/21 03:36:05;;;;;;;67.55;29.45;;;;;;;;;;5056252;28;20041;-83
2022/12/21 03:38:56;;;;;;;69.93;30.90;;;;;;;;;;5056053;28;20044;-82
2022/12/21 03:42:08;;;;;;;80.32;31.55;;;;;;;;;;5055430;28;20044;-82
2022/12/21 03:44:59;;;;;;;70.65;30.92;;;;;;;;;;5077195;28;20033;-83
2022/12/21 03:48:00;;;;;;;74.97;30.92;;;;;;;;;;5074499;28;20041;-82
2022/12/21 03:50:47;;;;;;;69.70;30.17;;;;;;;;;;5056460;28;20049;-86
2022/12/21 03:53:46;;;;;;;69.20;31.70;;;;;;;;;;5056282;28;20041;-86
2022/12/21 03:56:35;;;;;;;91.10;34.35;;;;;;;;;;5054791;28;20487;-83
2022/12/21 03:59:21;;;;;;;87.82;35.25;;;;;;;;;;5055978;28;20053;-83
2022/12/21 04:02:14;;;;;;;81.57;34.28;;;;;;;;;;5055979;28;20490;-86
2022/12/21 04:05:13;;;;;;;75.95;32.28;;;;;;;;;;5055703;28;20045;-82
2022/12/21 04:08:00;;;;;;;77.85;33.35;;;;;;;;;;5055737;28;20045;-83
2022/12/21 04:10:48;;;;;;;75.65;31.67;;;;;;;;;;5054597;28;20036;-82
2022/12/21 04:13:34;;;;;;;82.63;34.45;;;;;;;;;;5060857;28;20479;-83
2022/12/21 04:16:19;;;;;;;93.35;35.65;;;;;;;;;;5053706;28;20044;-83
2022/12/21 04:22:08;;;;;;;93.45;35.95;;;;;;;;;;5055800;28;20049;-86
2022/12/21 04:28:12;;;;;;;89.90;33.92;;;;;;;;;;5061430;28;20041;-85
2022/12/21 04:30:58;;;;;;;95.50;34.30;;;;;;;;;;5061311;28;20049;-82
2022/12/21 04:33:43;;;;;;;91.50;34.38;;;;;;;;;;5055999;28;20041;-86
2022/12/21 04:39:32;;;;;;;79.60;29.05;;;;;;;;;;5055286;28;20036;-86
2022/12/21 04:42:18;;;;;;;68.88;28.58;;;;;;;;;;5055021;28;20037;-82
2022/12/21 04:45:04;;;;;;;74.10;29.65;;;;;;;;;;5060501;28;20041;-82
2022/12/21 04:47:52;;;;;;;84.53;34.15;;;;;;;;;;5056115;28;20044;-86
2022/12/21 04:50:39;;;;;;;76.90;31.95;;;;;;;;;;5055737;28;20049;-82
2022/12/21 04:53:25;;;;;;;77.18;31.02;;;;;;;;;;5054885;28;20045;-82
2022/12/21 04:56:10;;;;;;;93.47;35.20;;;;;;;;;;5055105;28;20048;-82
2022/12/21 04:58:55;;;;;;;95.95;35.15;;;;;;;;;;5054471;28;20048;-86
2022/12/21 05:01:40;;;;;;;101.55;35.88;;;;;;;;;;5060802;28;20493;-86
2022/12/21 05:04:26;;;;;;;92.07;36.53;;;;;;;;;;5046778;28;20041;-86
2022/12/21 05:07:10;;;;;;;102.10;38.67;;;;;;;;;;5060374;28;20041;-82
2022/12/21 05:09:56;;;;;;;97.35;38.13;;;;;;;;;;5055135;28;20053;-83
2022/12/21 05:12:41;;;;;;;90.18;38.47;;;;;;;;;;5054477;28;20044;-84
2022/12/21 05:15:27;;;;;;;96.18;41.67;;;;;;;;;;5055123;28;20041;-85
2022/12/21 05:18:13;;;;;;;101.10;41.25;;;;;;;;;;5060715;28;20045;-82
2022/12/21 05:20:58;;;;;;;102.35;40.85;;;;;;;;;;5060816;28;20037;-84
2022/12/21 05:23:45;;;;;;;87.20;37.72;;;;;;;;;;5060239;28;20049;-84
2022/12/21 05:26:29;;;;;;;98.72;40.15;;;;;;;;;;5053954;28;20041;-80
2022/12/21 05:29:15;;;;;;;92.85;40.30;;;;;;;;;;5054076;28;20406;-80
2022/12/21 05:32:00;;;;;;;96.15;40.95;;;;;;;;;;5054126;28;20037;-84
2022/12/21 05:34:45;;;;;;;103.60;40.35;;;;;;;;;;5053614;28;20036;-85
2022/12/21 05:37:31;;;;;;;94.72;38.53;;;;;;;;;;5053297;28;20045;-80
2022/12/21 05:40:16;;;;;;;108.60;41.80;;;;;;;;;;5053213;28;20044;-82
2022/12/21 05:43:03;;;;;;;107.20;42.92;;;;;;;;;;5059734;28;20049;-81
2022/12/21 05:45:48;;;;;;;108.65;45.97;;;;;;;;;;5053845;28;20050;-80
2022/12/21 05:48:33;;;;;;;114.75;43.88;;;;;;;;;;5054118;28;20041;-84
2022/12/21 05:51:19;;;;;;;110.55;43.80;;;;;;;;;;5054098;28;20048;-84
2022/12/21 05:54:03;;;;;;;200.23;69.90;;;;;;;;;;5059479;28;20037;-84
2022/12/21 05:56:49;;;;;;;146.20;48.88;;;;;;;;;;5053059;28;20045;-84
2022/12/21 05:59:34;;;;;;;133.05;47.22;;;;;;;;;;5054844;28;20041;-85
2022/12/21 06:02:20;;;;;;;122.72;44.22;;;;;;;;;;5076425;28;20045;-82
2022/12/21 06:05:06;;;;;;;114.35;44.97;;;;;;;;;;5075696;28;20045;-85
2022/12/21 06:07:52;;;;;;;111.03;46.55;;;;;;;;;;5061613;28;20037;-84
2022/12/21 06:10:38;;;;;;;110.78;43.38;;;;;;;;;;5054167;28;20041;-81
2022/12/21 06:13:23;;;;;;;98.28;43.55;;;;;;;;;;5053796;28;20053;-84
2022/12/21 06:16:12;;;;;;;116.28;43.85;;;;;;;;;;5059667;28;20044;-82
2022/12/21 06:18:58;;;;;;;116.32;49.40;;;;;;;;;;5052966;28;20471;-86
2022/12/21 06:21:43;;;;;;;138.68;56.50;;;;;;;;;;5045647;28;20037;-86
2022/12/21 06:24:29;;;;;;;148.43;58.17;;;;;;;;;;5052822;28;20045;-86
2022/12/21 06:27:14;;;;;;;167.00;68.68;;;;;;;;;;5052661;28;20049;-87
2022/12/21 06:30:00;;;;;;;176.90;71.05;;;;;;;;;;5054220;28;20048;-87
2022/12/21 06:32:45;;;;;;;170.80;65.50;;;;;;;;;;5052379;28;20045;-85
2022/12/21 06:35:32;;;;;;;152.10;63.58;;;;;;;;;;5053241;28;20044;-82
2022/12/21 06:38:17;;;;;;;185.55;86.30;;;;;;;;;;5052846;28;20045;-85
2022/12/21 06:41:07;;;;;;;162.27;66.05;;;;;;;;;;5053758;28;20041;-85
2022/12/21 06:43:52;;;;;;;158.95;62.25;;;;;;;;;;5053093;28;20041;-82
2022/12/21 06:46:37;;;;;;;143.32;53.17;;;;;;;;;;5053578;28;20052;-83
2022/12/21 06:49:22;;;;;;;140.88;54.53;;;;;;;;;;5052524;28;20053;-85
2022/12/21 06:52:08;;;;;;;157.20;61.28;;;;;;;;;;5053408;28;20417;-86
2022/12/21 06:54:55;;;;;;;142.65;54.67;;;;;;;;;;5052876;28;20478;-86
2022/12/21 06:57:40;;;;;;;152.35;59.38;;;;;;;;;;5053195;28;20045;-82
2022/12/21 07:00:25;;;;;;;176.13;66.10;;;;;;;;;;5059266;28;20406;-82
2022/12/21 07:03:11;;;;;;;204.20;72.45;;;;;;;;;;5044965;28;20045;-87
2022/12/21 07:05:56;;;;;;;151.15;54.60;;;;;;;;;;5053778;28;20425;-82
2022/12/21 07:08:43;;;;;;;133.15;51.30;;;;;;;;;;5053010;28;20048;-82
2022/12/21 07:11:29;;;;;;;119.90;51.72;;;;;;;;;;5053655;28;20045;-87
2022/12/21 07:14:14;;;;;;;188.93;84.60;;;;;;;;;;5053974;28;20041;-86
2022/12/21 07:17:00;;;;;;;177.95;81.72;;;;;;;;;;5054502;28;20063;-81
2022/12/21 07:19:45;;;;;;;200.85;85.45;;;;;;;;;;5063604;28;20041;-86
2022/12/21 07:22:30;;;;;;;165.60;74.90;;;;;;;;;;5057303;28;20041;-88
2022/12/21 07:25:16;;;;;;;155.43;68.47;;;;;;;;;;5058726;28;20037;-86
2022/12/21 07:28:01;;;;;;;165.95;75.32;;;;;;;;;;5056884;28;20045;-82
2022/12/21 07:30:48;;;;;;;166.48;72.90;;;;;;;;;;5057472;28;20494;-82
2022/12/21 07:33:35;;;;;;;184.18;79.40;;;;;;;;;;5056171;28;20405;-82
2022/12/21 07:36:20;;;;;;;189.13;77.40;;;;;;;;;;5056338;28;20041;-82
2022/12/21 07:39:06;;;;;;;157.80;70.00;;;;;;;;;;5056238;28;20037;-82
2022/12/21 07:41:51;;;;;;;168.48;75.32;;;;;;;;;;5055291;28;20474;-85
2022/12/21 07:44:36;;;;;;;182.20;81.15;;;;;;;;;;5056168;28;20037;-85
2022/12/21 07:47:29;;;;;;;184.98;83.90;;;;;;;;;;5056340;28;20045;-86
2022/12/21 07:50:15;;;;;;;170.82;70.15;;;;;;;;;;5055821;28;20482;-83
2022/12/21 07:53:00;;;;;;;151.57;63.70;;;;;;;;;;5055968;28;20343;-85
2022/12/21 07:55:46;;;;;;;182.45;77.80;;;;;;;;;;5055516;28;20037;-86
2022/12/21 07:58:34;;;;;;;207.43;86.95;;;;;;;;;;5056065;28;20045;-82
2022/12/21 08:01:19;;;;;;;186.43;79.70;;;;;;;;;;5061199;28;20045;-86
2022/12/21 08:04:07;;;;;;;156.10;63.17;;;;;;;;;;5061087;28;20042;-82
2022/12/21 08:06:51;;;;;;;164.80;70.95;;;;;;;;;;5055365;28;20045;-81
2022/12/21 08:09:37;;;;;;;139.43;57.25;;;;;;;;;;5055687;28;20398;-85
2022/12/21 08:12:22;;;;;;;148.45;58.75;;;;;;;;;;5055197;28;20037;-80
2022/12/21 08:15:08;;;;;;;106.53;41.75;;;;;;;;;;5055908;28;20478;-79
2022/12/21 08:17:53;;;;;;;78.10;31.50;;;;;;;;;;5072933;28;20045;-79
2022/12/21 08:20:43;;;;;;;95.60;40.65;;;;;;;;;;5074956;28;20037;-80
2022/12/21 08:23:29;;;;;;;115.10;46.13;;;;;;;;;;5055752;28;20049;-84
2022/12/21 08:26:15;;;;;;;122.90;51.50;;;;;;;;;;5061026;28;20037;-78
2022/12/21 08:29:00;;;;;;;134.75;52.03;;;;;;;;;;5055375;28;20041;-84
2022/12/21 08:31:46;;;;;;;154.07;61.05;;;;;;;;;;5060441;28;20045;-84
2022/12/21 08:34:31;;;;;;;106.30;46.75;;;;;;;;;;5056442;28;20045;-85
2022/12/21 08:37:17;;;;;;;45.83;21.25;;;;;;;;;;5054014;28;20056;-85
2022/12/21 08:40:02;;;;;;;77.45;34.13;;;;;;;;;;5054855;28;20394;-85
2022/12/21 08:42:47;;;;;;;140.15;55.53;;;;;;;;;;5060734;28;20052;-84
2022/12/21 08:45:33;;;;;;;112.60;46.13;;;;;;;;;;5054886;28;20041;-83
2022/12/21 08:48:18;;;;;;;146.43;62.70;;;;;;;;;;5055360;28;20045;-86
2022/12/21 08:51:07;;;;;;;169.82;68.95;;;;;;;;;;5060932;28;20045;-83
2022/12/21 08:53:53;;;;;;;134.88;54.92;;;;;;;;;;5061691;28;20057;-79
2022/12/21 08:56:39;;;;;;;156.45;69.78;;;;;;;;;;5054360;28;20049;-78
2022/12/21 09:00:14;;;;;;;167.27;72.03;;;;;;;;;;5055206;28;20041;-81
2022/12/21 09:03:07;;;;;;;176.00;69.70;;;;;;;;;;5061020;28;20479;-83
2022/12/21 09:09:11;;;;;;;182.43;75.88;;;;;;;;;;5054446;28;20053;-84
2022/12/21 09:11:56;;;;;;;157.13;66.65;;;;;;;;;;5059702;28;20044;-82
2022/12/21 09:14:42;;;;;;;169.30;70.90;;;;;;;;;;5054030;28;20041;-83
2022/12/21 09:17:26;;;;;;;165.38;74.80;;;;;;;;;;5060049;28;20052;-84
2022/12/21 09:20:11;;;;;;;185.98;76.20;;;;;;;;;;5054459;28;20041;-83
2022/12/21 09:22:57;;;;;;;167.10;71.25;;;;;;;;;;5053947;28;20054;-83
2022/12/21 09:25:43;;;;;;;216.80;86.00;;;;;;;;;;5054077;28;20491;-82
2022/12/21 09:28:28;;;;;;;208.50;91.88;;;;;;;;;;5054307;28;20486;-84
2022/12/21 09:31:16;;;;;;;180.10;77.50;;;;;;;;;;5060091;28;20037;-83
2022/12/21 09:34:01;;;;;;;154.48;67.13;;;;;;;;;;5059820;28;20041;-84
2022/12/21 09:36:47;;;;;;;150.50;69.38;;;;;;;;;;5053923;28;20041;-84
2022/12/21 09:39:33;;;;;;;225.40;99.70;;;;;;;;;;5052306;28;20049;-83
2022/12/21 09:42:31;;;;;;;171.10;76.68;;;;;;;;;;5054009;28;20037;-84
2022/12/21 09:45:29;;;;;;;136.38;54.78;;;;;;;;;;5059556;28;20418;-84
2022/12/21 09:48:18;;;;;;;180.88;72.63;;;;;;;;;;5059765;28;20037;-84
2022/12/21 09:51:04;;;;;;;159.98;67.63;;;;;;;;;;5053215;28;20045;-83
2022/12/21 09:54:02;;;;;;;98.05;43.10;;;;;;;;;;5054267;28;20033;-84
2022/12/21 09:56:51;;;;;;;107.72;46.10;;;;;;;;;;5053166;28;20057;-84
2022/12/21 09:59:38;;;;;;;121.47;51.22;;;;;;;;;;5055412;28;20132;-83
2022/12/21 10:02:40;;;;;;;123.15;52.75;;;;;;;;;;5053042;28;20041;-85
2022/12/21 10:05:37;;;;;;;194.35;85.97;;;;;;;;;;5052601;28;20037;-85
2022/12/21 10:08:49;;;;;;;269.77;108.93;;;;;;;;;;5053049;28;20049;-82
2022/12/21 10:11:56;;;;;;;118.45;52.33;;;;;;;;;;5059474;28;20033;-82
2022/12/21 10:15:09;;;;;;;125.30;51.85;;;;;;;;;;5054527;28;20390;-83
2022/12/21 10:18:36;;;;;;;113.32;49.88;;;;;;;;;;5052634;28;20037;-86
2022/12/21 10:22:06;;;;;;;131.70;55.38;;;;;;;;;;5059663;28;20041;-84
2022/12/21 10:24:59;;;;;;;127.55;51.53;;;;;;;;;;5045141;28;20044;-84
2022/12/21 10:27:50;;;;;;;120.75;50.33;;;;;;;;;;5059627;28;20446;-84
2022/12/21 10:30:42;;;;;;;126.57;54.97;;;;;;;;;;5059204;28;20048;-85
2022/12/21 10:33:29;;;;;;;123.45;51.28;;;;;;;;;;5044870;28;20045;-84
2022/12/21 10:36:25;;;;;;;127.90;52.90;;;;;;;;;;5049800;28;20058;-85
2022/12/21 10:39:18;;;;;;;113.78;50.83;;;;;;;;;;5084450;28;20033;-85
2022/12/21 10:42:34;;;;;;;131.57;53.38;;;;;;;;;;5072407;28;20041;-85
2022/12/21 10:45:26;;;;;;;130.18;55.97;;;;;;;;;;5053003;28;20471;-83
2022/12/21 10:48:15;;;;;;;116.93;51.35;;;;;;;;;;5058814;28;20049;-84
2022/12/21 10:51:46;;;;;;;118.82;47.75;;;;;;;;;;5055214;28;20053;-84
2022/12/21 10:54:50;;;;;;;;;;;;;;;;;;5063026;28;20398;-82
2022/12/21 10:57:42;;;;;;;80.05;31.65;;;;;;;;;;5056634;28;19917;-83
2022/12/21 11:00:40;;;;;;;100.47;43.92;;;;;;;;;;5049241;28;20036;-84
2022/12/21 11:03:39;;;;;;;104.50;45.13;;;;;;;;;;5057897;28;20049;-84
2022/12/21 11:06:24;;;;;;;99.97;42.78;;;;;;;;;;5062924;28;20049;-82
2022/12/21 11:09:37;;;;;;;110.72;44.47;;;;;;;;;;5057723;28;20033;-86
2022/12/21 11:12:28;;;;;;;103.97;43.83;;;;;;;;;;5063141;28;20053;-83
2022/12/21 11:15:23;;;;;;;74.95;34.40;;;;;;;;;;5062907;28;20037;-85
2022/12/21 11:18:30;;;;;;;74.82;35.42;;;;;;;;;;5062855;28;20044;-84
2022/12/21 11:21:38;;;;;;;71.93;31.67;;;;;;;;;;5056463;28;20045;-82
2022/12/21 11:24:32;;;;;;;65.90;30.50;;;;;;;;;;5048311;28;20041;-82
2022/12/21 11:27:29;;;;;;;66.40;31.73;;;;;;;;;;5062415;28;20414;-85
2022/12/21 11:30:35;;;;;;;87.15;36.35;;;;;;;;;;5068238;28;20041;-85
2022/12/21 11:33:21;;;;;;;75.50;34.55;;;;;;;;;;5057792;28;20041;-84
2022/12/21 11:36:11;;;;;;;76.85;37.80;;;;;;;;;;5058521;28;20145;-84
2022/12/21 11:38:57;;;;;;;92.93;36.20;;;;;;;;;;5057160;28;20041;-85
2022/12/21 11:41:50;;;;;;;77.18;35.72;;;;;;;;;;5056867;28;20053;-85
2022/12/21 11:44:36;;;;;;;73.60;32.47;;;;;;;;;;5057379;28;20041;-85
2022/12/21 11:47:27;;;;;;;86.32;36.17;;;;;;;;;;5064223;28;20045;-83
2022/12/21 11:50:20;;;;;;;59.58;28.52;;;;;;;;;;5062017;28;20045;-83
2022/12/21 11:53:23;;;;;;;73.43;33.97;;;;;;;;;;5063007;28;20049;-84
2022/12/21 11:56:19;;;;;;;81.30;33.65;;;;;;;;;;5054844;28;20037;-83
2022/12/21 11:59:29;;;;;;;66.30;30.70;;;;;;;;;;5056304;28;20049;-84
2022/12/21 12:02:36;;;;;;;66.30;31.00;;;;;;;;;;5061910;28;20040;-85
2022/12/21 12:05:33;;;;;;;73.22;33.97;;;;;;;;;;5062296;28;20037;-83
2022/12/21 12:08:43;;;;;;;73.55;35.10;;;;;;;;;;5055600;28;20049;-83
2022/12/21 12:11:41;;;;;;;76.10;34.85;;;;;;;;;;5058003;28;20045;-84
2022/12/21 12:14:51;;;;;;;71.13;33.92;;;;;;;;;;5055061;28;20490;-83
2022/12/21 12:18:05;;;;;;;81.95;37.40;;;;;;;;;;5055520;28;20045;-83
2022/12/21 12:21:12;;;;;;;87.05;43.05;;;;;;;;;;5055470;28;20462;-83
2022/12/21 12:24:00;;;;;;;80.00;37.05;;;;;;;;;;5055793;28;20037;-82
2022/12/21 12:26:52;;;;;;;85.03;36.60;;;;;;;;;;5055272;28;20041;-83
2022/12/21 12:29:46;;;;;;;74.55;37.28;;;;;;;;;;5055172;28;20044;-83
2022/12/21 12:32:47;;;;;;;75.18;34.80;;;;;;;;;;5060945;28;20049;-83
2022/12/21 12:36:10;;;;;;;71.40;34.80;;;;;;;;;;5060931;28;20049;-85
2022/12/21 12:39:19;;;;;;;98.82;40.58;;;;;;;;;;5026030;28;20041;-83
2022/12/21 12:42:21;;;;;;;81.43;36.95;;;;;;;;;;5054057;28;20041;-83
2022/12/21 12:45:11;;;;;;;79.97;35.95;;;;;;;;;;5060555;28;20040;-82
2022/12/21 12:48:28;;;;;;;81.68;36.65;;;;;;;;;;5060804;28;20056;-84
2022/12/21 12:51:26;;;;;;;76.63;34.75;;;;;;;;;;5053848;28;20049;-84
2022/12/21 12:54:31;;;;;;;86.35;35.30;;;;;;;;;;5057107;28;20045;-85
2022/12/21 12:57:35;;;;;;;81.30;38.03;;;;;;;;;;5079316;28;20037;-82
2022/12/21 13:00:22;;;;;;;82.07;36.05;;;;;;;;;;5065314;28;20049;-83
2022/12/21 13:03:26;;;;;;;81.72;37.88;;;;;;;;;;5053460;28;20053;-83
2022/12/21 13:06:30;;;;;;;;;;;;;;;;;;5060716;28;20406;-84
2022/12/21 13:09:18;;;;;;;105.47;45.95;;;;;;;;;;5054509;28;19912;-82
2022/12/21 13:12:28;;;;;;;96.90;38.42;;;;;;;;;;5054387;28;20048;-86
2022/12/21 13:15:13;;;;;;;85.60;38.65;;;;;;;;;;5052418;28;20160;-86
2022/12/21 13:18:04;;;;;;;70.82;32.42;;;;;;;;;;5053616;28;20041;-86
2022/12/21 13:20:55;;;;;;;71.85;34.40;;;;;;;;;;5054584;28;20041;-85
2022/12/21 13:23:45;;;;;;;67.70;31.02;;;;;;;;;;5054377;28;20036;-83
2022/12/21 13:26:39;;;;;;;66.32;28.83;;;;;;;;;;5053130;28;20033;-85
2022/12/21 13:29:31;;;;;;;66.53;30.95;;;;;;;;;;5055116;28;20037;-86
2022/12/21 13:32:23;;;;;;;73.03;30.83;;;;;;;;;;5054923;28;20048;-82
2022/12/21 13:35:36;;;;;;;67.88;31.65;;;;;;;;;;5054158;28;20037;-84
2022/12/21 13:38:32;;;;;;;79.75;34.17;;;;;;;;;;5053846;28;20108;-82
2022/12/21 13:41:26;;;;;;;67.22;31.85;;;;;;;;;;5053291;28;20052;-86
2022/12/21 13:44:38;;;;;;;70.30;32.85;;;;;;;;;;5059573;28;20401;-84
2022/12/21 13:47:25;;;;;;;61.17;31.73;;;;;;;;;;5054416;28;20482;-84
2022/12/21 13:50:13;;;;;;;77.93;34.83;;;;;;;;;;5053484;28;20040;-85
2022/12/21 13:53:27;;;;;;;75.68;34.45;;;;;;;;;;5054780;28;20048;-82
2022/12/21 13:56:23;;;;;;;86.00;33.40;;;;;;;;;;5059949;28;20386;-84
2022/12/21 13:59:24;;;;;;;76.65;36.75;;;;;;;;;;5053937;28;20495;-83
2022/12/21 14:02:15;;;;;;;82.72;39.28;;;;;;;;;;5053497;28;20397;-84
2022/12/21 14:05:27;;;;;;;85.15;37.88;;;;;;;;;;5059405;28;20093;-84
2022/12/21 14:08:40;;;;;;;79.68;39.97;;;;;;;;;;5053526;28;20482;-84
2022/12/21 14:11:37;;;;;;;89.80;39.90;;;;;;;;;;5059533;28;20398;-84
2022/12/21 14:14:36;;;;;;;87.85;39.42;;;;;;;;;;5066391;28;20044;-83
2022/12/21 14:17:39;;;;;;;90.10;39.15;;;;;;;;;;5061835;28;20407;-83
2022/12/21 14:20:34;;;;;;;93.15;38.05;;;;;;;;;;5054634;28;20044;-85
2022/12/21 14:23:28;;;;;;;91.57;39.33;;;;;;;;;;5059604;28;20045;-84
2022/12/21 14:26:50;;;;;;;91.85;39.80;;;;;;;;;;5056935;28;20033;-84
2022/12/21 14:29:43;;;;;;;103.57;42.55;;;;;;;;;;5058261;28;20462;-85
2022/12/21 14:32:29;;;;;;;102.10;44.67;;;;;;;;;;5057591;28;20431;-85
2022/12/21 14:35:40;;;;;;;101.43;44.75;;;;;;;;;;5063445;28;20037;-85
2022/12/21 14:38:27;;;;;;;101.22;42.22;;;;;;;;;;5058529;28;20160;-83
2022/12/21 14:41:12;;;;;;;96.13;42.85;;;;;;;;;;5075411;28;20045;-82
2022/12/21 14:44:21;;;;;;;118.28;47.80;;;;;;;;;;5079059;28;20549;-81
2022/12/21 14:47:07;;;;;;;265.10;83.65;;;;;;;;;;5065950;28;20041;-83
2022/12/21 14:49:53;;;;;;;232.43;79.05;;;;;;;;;;5064038;28;20044;-84
2022/12/21 14:52:57;;;;;;;403.55;137.32;;;;;;;;;;5050138;28;20057;-83
2022/12/21 14:55:45;;;;;;;153.75;61.97;;;;;;;;;;5059152;28;20045;-84
2022/12/21 14:58:33;;;;;;;223.55;89.65;;;;;;;;;;5056818;28;20041;-86
2022/12/21 15:01:30;;;;;;;221.05;83.85;;;;;;;;;;5057880;28;20045;-83
2022/12/21 15:04:20;;;;;;;201.90;87.25;;;;;;;;;;5059044;28;20044;-82
2022/12/21 15:07:18;;;;;;;272.95;110.40;;;;;;;;;;5067946;28;20033;-84
2022/12/21 15:10:18;;;;;;;230.05;98.80;;;;;;;;;;5065192;28;20033;-85
2022/12/21 15:13:16;;;;;;;220.73;95.53;;;;;;;;;;5086803;28;20037;-83
2022/12/21 15:16:15;;;;;;;261.50;103.72;;;;;;;;;;5078459;28;20486;-83
2022/12/21 15:19:11;;;;;;;285.33;111.30;;;;;;;;;;5058470;28;20037;-84
2022/12/21 15:22:12;;;;;;;230.82;92.78;;;;;;;;;;5056159;28;20053;-83
2022/12/21 15:25:05;;;;;;;254.15;96.78;;;;;;;;;;5056932;28;20049;-83
2022/12/21 15:27:56;;;;;;;212.98;91.22;;;;;;;;;;5062664;28;20049;-84
2022/12/21 15:30:47;;;;;;;224.07;100.45;;;;;;;;;;5058286;28;20482;-83
2022/12/21 15:33:37;;;;;;;276.55;121.65;;;;;;;;;;5065935;28;20053;-83
2022/12/21 15:36:31;;;;;;;271.40;122.32;;;;;;;;;;5071939;28;20041;-83
2022/12/21 15:39:22;;;;;;;260.90;115.78;;;;;;;;;;5056313;28;20037;-84
2022/12/21 15:42:08;;;;;;;265.48;119.78;;;;;;;;;;5056558;28;20593;-85
2022/12/21 15:45:03;;;;;;;227.45;106.75;;;;;;;;;;5056004;28;20045;-85
2022/12/21 15:48:13;;;;;;;272.00;121.30;;;;;;;;;;5056458;28;20437;-82
2022/12/21 15:51:08;;;;;;;285.38;121.30;;;;;;;;;;5063052;28;20049;-83
2022/12/21 15:54:13;;;;;;;282.75;115.10;;;;;;;;;;5056657;28;20045;-83
2022/12/21 15:57:03;;;;;;;226.50;96.47;;;;;;;;;;5059194;28;20053;-83
2022/12/21 15:59:49;;;;;;;259.48;108.50;;;;;;;;;;5061593;28;20482;-84
2022/12/21 16:02:34;;;;;;;244.32;106.40;;;;;;;;;;5056712;28;20045;-85
2022/12/21 16:05:23;;;;;;;217.70;94.30;;;;;;;;;;5055664;28;20049;-82
2022/12/21 16:08:15;;;;;;;245.95;104.88;;;;;;;;;;5055703;28;20041;-84
2022/12/21 16:11:01;;;;;;;210.75;95.10;;;;;;;;;;5061028;28;20045;-84
2022/12/21 16:13:46;;;;;;;240.02;102.03;;;;;;;;;;5055242;28;20049;-84
2022/12/21 16:16:34;;;;;;;222.73;98.80;;;;;;;;;;5054373;28;20037;-83
2022/12/21 16:19:32;;;;;;;221.98;95.70;;;;;;;;;;5055654;28;20041;-84
2022/12/21 16:22:20;;;;;;;206.85;91.45;;;;;;;;;;5055207;28;20041;-84
2022/12/21 16:25:07;;;;;;;199.35;90.43;;;;;;;;;;5041046;28;20474;-83
2022/12/21 16:27:53;;;;;;;202.52;87.43;;;;;;;;;;5062012;28;20044;-83
2022/12/21 16:30:38;;;;;;;209.60;90.00;;;;;;;;;;5055864;28;20048;-84
2022/12/21 16:33:23;;;;;;;206.63;87.07;;;;;;;;;;5055851;28;20040;-83
2022/12/21 16:36:21;;;;;;;249.68;117.40;;;;;;;;;;5055041;28;20052;-83
2022/12/21 16:39:10;;;;;;;205.73;89.50;;;;;;;;;;5060607;28;20048;-83
2022/12/21 16:41:55;;;;;;;198.90;91.38;;;;;;;;;;5055155;28;20045;-83
2022/12/21 16:44:44;;;;;;;238.63;103.97;;;;;;;;;;5060507;28;20045;-84
2022/12/21 16:47:29;;;;;;;226.40;102.75;;;;;;;;;;5054428;28;20046;-82